Time;durP1;ratioP1;P1;durP2;ratioP2;P2;SDS_P1;SDS_P2;PMS_P1;PMS_P2;Temp;Humidity;BMP_temperature;BMP_pressure;BME280_temperature;BME280_humidity;BME280_pressure;Samples;Min_cycle;Max_cycle;Signal;HPM_P1;HPM_P2
2023/09/02 00:02:21;;;;;;;11.90;8.48;;;;;;;18.92;68.35;99963.34;5031652;28;20054;-76
2023/09/02 00:04:47;;;;;;;14.05;8.23;;;;;;;18.92;68.18;99963.34;5032530;28;20092;-77
2023/09/02 00:07:14;;;;;;;11.02;7.45;;;;;;;18.94;67.82;99960.53;5032312;28;20059;-75
2023/09/02 00:09:41;;;;;;;11.15;7.82;;;;;;;18.93;68.55;99966.84;5032264;28;20053;-76
2023/09/02 00:12:08;;;;;;;13.25;7.82;;;;;;;18.94;68.67;99966.72;5031765;28;20049;-76
2023/09/02 00:14:35;;;;;;;10.20;7.97;;;;;;;18.94;68.76;99964.06;5032054;28;20045;-76
2023/09/02 00:17:01;;;;;;;10.68;8.07;;;;;;;18.96;68.71;99963.91;5031934;28;20115;-75
2023/09/02 00:19:28;;;;;;;9.18;7.55;;;;;;;18.96;68.56;99963.91;5031883;28;20049;-79
2023/09/02 00:21:55;;;;;;;14.18;8.02;;;;;;;18.97;68.46;99968.25;5031591;28;20053;-76
2023/09/02 00:24:22;;;;;;;9.95;7.30;;;;;;;18.97;68.50;99962.94;5031659;28;20444;-75
2023/09/02 00:26:49;;;;;;;10.43;7.68;;;;;;;18.97;68.44;99963.78;5031788;28;20126;-78
2023/09/02 00:29:15;;;;;;;11.70;7.60;;;;;;;18.99;68.69;99968.97;5031741;28;20049;-78
2023/09/02 00:31:42;;;;;;;10.40;8.15;;;;;;;18.97;68.40;99963.78;5031374;28;20087;-76
2023/09/02 00:34:09;;;;;;;15.52;7.80;;;;;;;18.97;68.67;99965.59;5031475;28;20057;-77
2023/09/02 00:36:36;;;;;;;11.13;8.38;;;;;;;18.98;68.65;99969.94;5031637;28;20045;-76
2023/09/02 00:39:04;;;;;;;10.98;8.18;;;;;;;18.98;69.12;99980.63;5031561;28;20096;-76
2023/09/02 00:41:43;;;;;;;10.10;8.43;;;;;;;18.95;68.89;99980.91;5013437;28;20058;-76
2023/09/02 00:44:09;;;;;;;13.82;8.05;;;;;;;18.99;68.55;99987.66;5031330;28;20118;-77
2023/09/02 00:46:36;;;;;;;11.77;8.55;;;;;;;18.99;68.64;99985.00;5031740;28;20057;-76
2023/09/02 00:49:03;;;;;;;9.85;8.15;;;;;;;18.99;68.67;99987.66;5031364;28;20552;-79
2023/09/02 00:51:29;;;;;;;15.05;8.68;;;;;;;19.00;68.90;99981.34;5031336;28;20050;-79
2023/09/02 00:53:56;;;;;;;11.65;9.23;;;;;;;19.01;68.81;99985.69;5030971;28;20049;-77
2023/09/02 00:56:24;;;;;;;11.10;9.75;;;;;;;19.00;68.93;99986.66;5030946;28;20544;-76
2023/09/02 00:58:56;;;;;;;11.20;9.13;;;;;;;19.00;68.75;99992.00;5031195;28;20084;-76
2023/09/02 01:01:22;;;;;;;13.50;9.63;;;;;;;19.02;68.79;99995.38;5030969;28;20144;-76
2023/09/02 01:03:49;;;;;;;15.10;10.25;;;;;;;19.01;68.98;99983.88;5030811;28;20049;-76
2023/09/02 01:06:16;;;;;;;12.05;9.85;;;;;;;19.02;68.94;99976.69;5030937;28;20045;-79
2023/09/02 01:08:43;;;;;;;14.15;10.00;;;;;;;19.00;68.66;99979.50;5030846;28;20398;-76
2023/09/02 01:11:10;;;;;;;12.23;8.38;;;;;;;19.00;68.66;99984.81;5030382;28;20057;-76
2023/09/02 01:13:36;;;;;;;11.40;8.48;;;;;;;19.01;68.58;99988.34;5030893;28;20547;-77
2023/09/02 01:16:03;;;;;;;11.57;9.00;;;;;;;19.00;68.84;99986.66;5031201;28;20045;-78
2023/09/02 01:18:30;;;;;;;17.52;9.65;;;;;;;19.00;69.03;99984.81;5013647;28;20111;-76
2023/09/02 01:21:30;;;;;;;9.60;8.57;;;;;;;18.98;69.68;99988.63;5012840;28;20085;-76
2023/09/02 01:23:57;;;;;;;17.45;9.40;;;;;;;19.02;68.81;99990.03;5011695;28;20053;-78
2023/09/02 01:26:34;;;;;;;14.80;9.50;;;;;;;18.99;69.38;99993.00;5011236;28;20399;-76
2023/09/02 01:29:06;;;;;;;12.48;9.82;;;;;;;19.01;69.37;99991.00;4993565;28;20499;-79
2023/09/02 01:31:43;;;;;;;13.30;10.27;;;;;;;19.00;69.57;99997.34;4996836;28;20457;-78
2023/09/02 01:34:11;;;;;;;10.30;8.95;;;;;;;19.04;68.83;99995.22;5030717;28;20111;-77
2023/09/02 01:36:41;;;;;;;11.90;9.85;;;;;;;19.04;69.06;99995.22;5029770;28;20064;-80
2023/09/02 01:39:09;;;;;;;11.18;8.13;;;;;;;19.05;69.11;99989.78;5030966;28;20053;-80
2023/09/02 01:41:37;;;;;;;10.68;8.60;;;;;;;19.04;68.71;99995.22;5029171;28;20050;-76
2023/09/02 01:44:04;;;;;;;10.65;9.00;;;;;;;19.04;68.94;99993.41;5013222;28;20060;-77
2023/09/02 01:46:31;;;;;;;11.95;9.93;;;;;;;19.04;69.04;99995.22;5012987;28;20327;-76
2023/09/02 01:48:58;;;;;;;11.25;8.63;;;;;;;19.04;69.09;99992.56;5029726;28;20049;-77
2023/09/02 01:51:26;;;;;;;9.98;8.98;;;;;;;19.03;68.97;99999.75;5030487;28;20045;-78
2023/09/02 01:53:52;;;;;;;11.65;8.93;;;;;;;19.02;68.98;99993.56;5030369;28;20077;-76
2023/09/02 01:56:19;;;;;;;14.48;9.48;;;;;;;19.01;68.91;99989.22;5030208;28;20053;-78
2023/09/02 01:58:49;;;;;;;14.10;9.68;;;;;;;19.00;68.95;99989.34;5030588;28;20045;-76
2023/09/02 02:06:53;;;;;;;13.40;10.70;;;;;;;18.95;68.64;100007.59;5035594;28;20112;-85
2023/09/02 02:09:42;;;;;;;11.00;8.90;;;;;;;18.87;69.32;100003.75;5038493;28;20060;-86
2023/09/02 02:12:10;;;;;;;12.02;9.82;;;;;;;18.90;68.58;99999.97;5039144;28;20104;-85
2023/09/02 02:14:36;;;;;;;14.70;10.68;;;;;;;18.87;68.65;100001.09;5030921;28;20065;-85
2023/09/02 02:17:06;;;;;;;18.42;10.63;;;;;;;18.85;69.08;100004.88;5019099;28;20420;-84
2023/09/02 02:19:44;;;;;;;14.23;10.05;;;;;;;18.77;69.19;99999.38;4997120;28;20100;-84
2023/09/02 02:22:11;;;;;;;13.15;10.60;;;;;;;18.78;68.79;99996.56;5018398;28;20065;-85
2023/09/02 02:24:37;;;;;;;14.95;11.10;;;;;;;18.73;68.66;99988.97;5021238;28;20095;-84
2023/09/02 02:27:04;;;;;;;14.15;11.35;;;;;;;18.70;68.63;99988.41;5025537;28;20098;-85
2023/09/02 02:29:31;;;;;;;15.02;10.95;;;;;;;18.67;68.48;99991.34;5037685;28;20053;-85
2023/09/02 02:31:57;;;;;;;14.25;10.88;;;;;;;18.61;68.35;99992.72;5025616;28;20103;-85
2023/09/02 02:34:24;;;;;;;14.50;10.90;;;;;;;18.56;68.26;99990.47;5040934;28;20059;-85
2023/09/02 02:37:05;;;;;;;16.42;11.25;;;;;;;18.51;68.19;99992.69;5033796;28;20055;-85
2023/09/02 02:39:31;;;;;;;13.02;10.00;;;;;;;18.45;68.46;99990.53;5020988;28;20029;-85
2023/09/02 02:41:58;;;;;;;15.98;10.88;;;;;;;18.38;68.34;99994.72;5035495;28;20049;-85
2023/09/02 02:44:24;;;;;;;12.90;10.70;;;;;;;18.34;68.69;100005.66;5003881;28;20057;-85
2023/09/02 02:46:51;;;;;;;16.13;10.98;;;;;;;18.30;68.80;100004.22;5019041;28;20133;-85
2023/09/02 02:49:17;;;;;;;14.43;10.07;;;;;;;18.28;69.10;100000.81;5018911;28;20535;-85
2023/09/02 02:51:44;;;;;;;18.02;10.18;;;;;;;18.27;69.31;100003.66;5019764;28;20076;-84
2023/09/02 02:54:10;;;;;;;17.52;10.82;;;;;;;18.25;69.49;100002.91;5040413;28;20032;-85
2023/09/02 02:56:37;;;;;;;13.50;10.70;;;;;;;18.25;69.54;100005.59;5024988;28;20081;-85
2023/09/02 02:59:03;;;;;;;12.63;10.45;;;;;;;18.26;69.65;100015.25;5021547;28;20053;-84
2023/09/02 03:01:31;;;;;;;13.27;9.73;;;;;;;18.26;69.44;100021.44;5039944;28;20107;-84
2023/09/02 03:03:57;;;;;;;11.27;8.75;;;;;;;18.28;69.36;100014.16;5020403;28;20068;-85
2023/09/02 03:06:24;;;;;;;12.32;9.80;;;;;;;18.30;69.77;100022.88;5039040;28;20080;-85
2023/09/02 03:08:50;;;;;;;13.45;9.73;;;;;;;18.29;69.67;100018.53;5038659;28;20049;-85
2023/09/02 03:11:26;;;;;;;14.38;10.13;;;;;;;18.31;69.80;100023.69;5043065;28;20087;-86
2023/09/02 03:13:54;;;;;;;16.35;11.20;;;;;;;18.32;69.88;100020.91;5027410;28;20144;-85
2023/09/02 03:16:33;;;;;;;14.25;11.05;;;;;;;18.35;69.72;100022.47;5018019;28;20050;-85
2023/09/02 03:19:03;;;;;;;15.65;12.25;;;;;;;18.35;70.30;100023.31;5020514;28;20050;-87
2023/09/02 03:21:29;;;;;;;15.73;13.18;;;;;;;18.37;69.93;100015.19;5020455;28;20053;-85
2023/09/02 03:23:58;;;;;;;18.00;11.60;;;;;;;18.40;70.04;100006.09;5011544;28;20042;-87
2023/09/02 03:26:26;;;;;;;15.10;12.25;;;;;;;18.41;69.89;100003.28;5027018;28;20084;-85
2023/09/02 03:28:54;;;;;;;14.95;12.10;;;;;;;18.42;69.71;100009.44;5008548;28;20049;-85
2023/09/02 03:31:24;;;;;;;15.63;12.48;;;;;;;18.40;70.18;100004.28;5026048;28;20411;-87
2023/09/02 03:33:52;;;;;;;17.80;13.32;;;;;;;18.43;69.60;100006.66;5020446;28;20045;-85
2023/09/02 03:36:20;;;;;;;14.38;12.35;;;;;;;18.44;69.87;100010.19;5024573;28;20516;-85
2023/09/02 03:38:47;;;;;;;15.32;12.93;;;;;;;18.42;69.87;100007.66;5021068;28;20057;-85
2023/09/02 03:41:17;;;;;;;20.15;12.27;;;;;;;18.43;70.19;100001.31;5022398;28;20091;-85
2023/09/02 03:43:46;;;;;;;17.42;12.23;;;;;;;18.42;70.27;100004.97;5021709;28;20049;-85
2023/09/02 03:46:14;;;;;;;14.98;11.93;;;;;;;18.45;70.12;100006.53;5038288;28;20137;-85
2023/09/02 03:48:40;;;;;;;15.23;12.55;;;;;;;18.45;70.17;100003.88;5022135;28;20064;-85
2023/09/02 03:51:12;;;;;;;16.80;12.65;;;;;;;18.48;70.32;100011.59;5019971;28;20061;-85
2023/09/02 03:53:39;;;;;;;19.77;13.45;;;;;;;18.48;70.24;100008.94;5020766;28;20375;-85
2023/09/02 03:56:20;;;;;;;17.50;13.75;;;;;;;18.49;70.32;100013.28;5004702;28;20045;-85
2023/09/02 03:58:46;;;;;;;16.77;13.40;;;;;;;18.50;70.02;100014.97;5039563;28;20053;-85
2023/09/02 04:01:13;;;;;;;14.75;12.55;;;;;;;18.51;69.92;100022.00;5023361;28;20053;-85
2023/09/02 04:03:49;;;;;;;16.77;13.25;;;;;;;18.49;70.52;100019.47;5020891;28;20060;-85
2023/09/02 04:06:16;;;;;;;19.45;12.65;;;;;;;18.55;70.05;100019.91;5021567;28;20103;-85
2023/09/02 04:08:42;;;;;;;18.58;12.75;;;;;;;18.56;70.18;100024.25;5001162;28;20057;-85
2023/09/02 04:11:09;;;;;;;17.13;10.77;;;;;;;18.57;70.31;100016.13;5027900;28;20049;-85
2023/09/02 04:13:50;;;;;;;16.50;12.25;;;;;;;18.55;70.62;100020.78;5025208;28;20042;-85
2023/09/02 04:16:26;;;;;;;19.00;12.55;;;;;;;18.56;70.59;100022.44;5020184;28;20046;-85
2023/09/02 04:18:53;;;;;;;17.98;14.02;;;;;;;18.62;70.14;100023.75;5013441;28;20056;-85
2023/09/02 04:21:19;;;;;;;17.05;13.50;;;;;;;18.62;69.94;100019.25;5022858;28;20071;-85
2023/09/02 04:23:46;;;;;;;18.55;13.88;;;;;;;18.64;70.09;100015.63;5021480;28;20064;-85
2023/09/02 04:26:14;;;;;;;19.67;14.07;;;;;;;18.65;70.25;100023.47;5039030;28;20080;-85
2023/09/02 04:28:41;;;;;;;21.58;14.27;;;;;;;18.65;70.23;100026.13;5018729;28;20459;-85
2023/09/02 04:31:07;;;;;;;19.35;14.15;;;;;;;18.66;70.03;100032.31;5039076;28;20065;-85
2023/09/02 04:33:44;;;;;;;17.50;13.35;;;;;;;18.64;70.62;100032.44;5022546;28;20045;-85
2023/09/02 04:36:20;;;;;;;20.70;14.43;;;;;;;18.65;70.93;100035.97;5037244;28;20152;-86
2023/09/02 04:38:46;;;;;;;19.27;14.20;;;;;;;18.69;70.32;100040.06;5023037;28;20074;-85
2023/09/02 04:41:15;;;;;;;21.50;15.57;;;;;;;18.70;70.28;100036.41;5000600;28;20046;-86
2023/09/02 04:43:42;;;;;;;22.10;14.85;;;;;;;18.71;70.18;100043.41;4999543;28;20060;-85
2023/09/02 04:46:12;;;;;;;18.65;15.18;;;;;;;18.71;70.86;100043.41;4999533;28;20081;-87
2023/09/02 04:48:41;;;;;;;18.42;15.52;;;;;;;18.73;70.47;100047.63;5006749;28;20051;-85
2023/09/02 04:51:08;;;;;;;20.17;14.00;;;;;;;18.74;70.51;100049.34;5027652;28;20121;-85
2023/09/02 04:53:36;;;;;;;22.27;15.13;;;;;;;18.77;70.34;100053.56;5033148;28;20049;-85
2023/09/02 04:56:18;;;;;;;17.73;14.02;;;;;;;18.75;70.91;100052.84;5019740;28;20045;-85
2023/09/02 04:58:45;;;;;;;20.95;15.18;;;;;;;18.80;70.05;100055.13;4997387;28;20069;-84
2023/09/02 05:01:15;;;;;;;26.52;14.90;;;;;;;18.80;70.74;100057.78;5036871;28;20115;-85
2023/09/02 05:03:50;;;;;;;18.85;15.45;;;;;;;18.81;70.52;100062.13;5036758;28;20053;-85
2023/09/02 05:06:16;;;;;;;18.52;15.50;;;;;;;18.83;70.57;100063.69;5036389;28;20385;-85
2023/09/02 05:08:43;;;;;;;20.58;14.88;;;;;;;18.84;70.69;100065.38;5036503;28;20076;-85
2023/09/02 05:11:09;;;;;;;23.17;15.07;;;;;;;18.84;70.49;100061.88;5018344;28;20120;-85
2023/09/02 05:13:36;;;;;;;18.13;14.48;;;;;;;18.86;70.57;100062.56;5018389;28;20100;-85
2023/09/02 05:16:03;;;;;;;19.73;15.38;;;;;;;18.87;70.65;100065.09;5016785;28;20093;-85
2023/09/02 05:18:29;;;;;;;22.73;16.10;;;;;;;18.91;70.52;100070.19;5001213;28;20049;-85
2023/09/02 05:20:56;;;;;;;20.80;15.75;;;;;;;18.92;70.52;100075.38;5017036;28;20512;-85
2023/09/02 05:23:23;;;;;;;27.08;17.38;;;;;;;18.94;70.70;100069.88;5017930;28;20045;-85
2023/09/02 05:25:54;;;;;;;25.95;18.83;;;;;;;18.94;70.99;100075.22;5000797;28;20119;-85
2023/09/02 05:28:21;;;;;;;24.35;17.60;;;;;;;18.97;70.94;100077.63;4997917;28;20405;-84
2023/09/02 05:30:48;;;;;;;27.83;18.80;;;;;;;19.00;70.81;100085.38;5003135;28;20103;-84
2023/09/02 05:33:16;;;;;;;25.48;16.55;;;;;;;19.02;71.12;100091.41;5032263;28;20081;-84
2023/09/02 05:35:43;;;;;;;22.15;15.93;;;;;;;19.04;71.00;100084.13;5031822;28;20049;-84
2023/09/02 05:38:10;;;;;;;31.00;18.80;;;;;;;19.07;70.75;100081.22;5031267;28;20593;-84
2023/09/02 05:40:43;;;;;;;26.80;18.67;;;;;;;19.07;71.05;100086.56;5010491;28;20046;-84
2023/09/02 05:43:09;;;;;;;;;;;;;;;19.11;71.02;100089.78;5012574;28;20057;-84
2023/09/02 05:45:36;;;;;;;27.08;18.63;;;;;;;19.19;70.53;100083.78;5011201;28;19925;-84
2023/09/02 05:48:03;;;;;;;27.85;18.95;;;;;;;19.20;70.61;100085.47;5011117;28;20094;-84
2023/09/02 05:50:30;;;;;;;28.55;19.58;;;;;;;19.20;70.51;100091.66;5012164;28;20050;-84
2023/09/02 05:52:56;;;;;;;34.28;20.85;;;;;;;19.21;70.72;100088.00;5031565;28;20057;-84
2023/09/02 05:55:23;;;;;;;31.08;20.83;;;;;;;19.23;70.81;100080.72;5030660;28;20068;-84
2023/09/02 05:57:49;;;;;;;32.33;20.65;;;;;;;19.24;70.77;100082.41;5035930;28;20053;-84
2023/09/02 06:00:16;;;;;;;25.77;18.00;;;;;;;19.27;70.64;100081.28;5036129;28;20049;-84
2023/09/02 06:02:42;;;;;;;34.78;19.73;;;;;;;19.29;70.86;100074.00;5020790;28;20061;-84
2023/09/02 06:05:09;;;;;;;28.70;18.90;;;;;;;19.30;70.28;100072.16;5016306;28;20129;-84
2023/09/02 06:07:35;;;;;;;29.50;20.20;;;;;;;19.31;70.77;100068.50;5016071;28;20129;-84
2023/09/02 06:10:02;;;;;;;31.70;20.27;;;;;;;19.32;70.91;100076.38;5016455;28;20104;-84
2023/09/02 06:12:29;;;;;;;30.50;19.92;;;;;;;19.33;70.54;100075.38;5026064;28;20057;-84
2023/09/02 06:14:55;;;;;;;29.25;19.13;;;;;;;19.33;70.45;100078.03;5000022;28;20045;-83
2023/09/02 06:17:23;;;;;;;27.77;18.63;;;;;;;19.35;70.50;100078.78;5033190;28;20060;-84
2023/09/02 06:19:49;;;;;;;30.83;19.40;;;;;;;19.35;70.76;100086.78;5035776;28;20057;-84
2023/09/02 06:22:16;;;;;;;33.45;21.17;;;;;;;19.37;71.03;100086.66;5030182;28;20136;-84
2023/09/02 06:24:42;;;;;;;30.83;20.38;;;;;;;19.39;70.75;100090.88;4998406;28;20050;-84
2023/09/02 06:27:08;;;;;;;32.40;20.67;;;;;;;19.41;70.89;100098.75;5014957;28;20508;-84
2023/09/02 06:29:36;;;;;;;33.97;20.83;;;;;;;19.45;70.88;100099.28;5014685;28;20050;-84
2023/09/02 06:32:04;;;;;;;30.45;19.98;;;;;;;19.47;71.09;100100.03;5014981;28;20050;-84
2023/09/02 06:34:31;;;;;;;29.10;19.27;;;;;;;19.50;71.06;100105.91;4998251;28;20129;-84
2023/09/02 06:36:57;;;;;;;29.60;19.50;;;;;;;19.53;71.01;100111.00;5015322;28;20096;-84
2023/09/02 06:39:24;;;;;;;31.55;20.20;;;;;;;19.57;71.13;100113.38;4997834;28;20401;-83
2023/09/02 06:41:50;;;;;;;31.50;19.80;;;;;;;19.60;71.42;100115.78;5015277;28;20053;-83
2023/09/02 06:44:19;;;;;;;29.42;18.92;;;;;;;19.65;71.32;100119.72;5014516;28;20053;-84
2023/09/02 06:46:47;;;;;;;29.08;17.73;;;;;;;19.70;71.20;100119.28;5034759;28;20060;-84
2023/09/02 06:49:14;;;;;;;29.23;18.30;;;;;;;19.77;71.47;100116.91;5035027;28;20377;-83
2023/09/02 06:51:40;;;;;;;31.75;19.25;;;;;;;19.83;71.41;100127.06;5035202;28;20049;-84
2023/09/02 06:54:06;;;;;;;27.73;17.67;;;;;;;19.89;71.37;100128.34;5022346;28;20133;-84
2023/09/02 06:56:33;;;;;;;29.27;19.08;;;;;;;19.95;71.63;100133.09;5015039;28;20477;-84
2023/09/02 06:58:59;;;;;;;30.17;19.85;;;;;;;20.02;71.57;100125.41;5015003;28;20054;-83
2023/09/02 07:01:26;;;;;;;29.92;19.50;;;;;;;20.08;71.29;100130.19;4997488;28;20069;-84
2023/09/02 07:03:55;;;;;;;28.60;20.23;;;;;;;20.16;71.21;100127.69;4996918;28;20057;-83
2023/09/02 07:06:22;;;;;;;29.65;20.02;;;;;;;20.21;71.06;100134.41;5017091;28;20307;-83
2023/09/02 07:08:49;;;;;;;29.52;19.55;;;;;;;20.27;70.74;100137.38;5034290;28;20470;-83
2023/09/02 07:11:17;;;;;;;31.40;21.00;;;;;;;20.33;70.59;100145.81;5016685;28;20060;-83
2023/09/02 07:13:45;;;;;;;30.85;20.95;;;;;;;20.37;70.52;100145.38;5031388;28;20048;-83
2023/09/02 07:16:13;;;;;;;33.47;21.40;;;;;;;20.42;70.44;100153.78;4997127;28;20489;-83
2023/09/02 07:18:39;;;;;;;29.88;19.98;;;;;;;20.47;70.55;100150.72;5014356;28;20500;-83
2023/09/02 07:21:07;;;;;;;29.63;19.40;;;;;;;20.53;70.17;100162.66;4996845;28;20058;-84
2023/09/02 07:23:33;;;;;;;29.33;20.10;;;;;;;20.56;70.22;100163.22;4997715;28;20050;-83
2023/09/02 07:26:01;;;;;;;32.85;20.95;;;;;;;20.61;70.01;100167.28;5033504;28;20053;-84
2023/09/02 07:28:28;;;;;;;30.85;19.50;;;;;;;20.66;70.06;100168.56;5034715;28;20060;-83
2023/09/02 07:31:00;;;;;;;34.85;21.83;;;;;;;20.69;69.92;100164.75;5034779;28;20145;-83
2023/09/02 07:33:28;;;;;;;32.17;20.13;;;;;;;20.75;70.10;100179.38;5017345;28;20420;-84
2023/09/02 07:35:56;;;;;;;32.42;21.95;;;;;;;20.79;70.32;100175.44;5019832;28;20125;-84
2023/09/02 07:38:23;;;;;;;31.98;20.75;;;;;;;20.85;70.19;100187.41;5012709;28;20588;-84
2023/09/02 07:40:50;;;;;;;30.30;20.75;;;;;;;20.89;69.90;100186.16;5031866;28;20053;-84
2023/09/02 07:43:16;;;;;;;31.38;19.95;;;;;;;20.92;69.78;100192.06;5014673;28;20055;-84
2023/09/02 07:45:44;;;;;;;29.85;19.30;;;;;;;20.96;69.51;100198.81;5023265;28;20050;-84
2023/09/02 07:48:10;;;;;;;30.17;20.48;;;;;;;21.01;69.52;100198.34;5014838;28;20061;-84
2023/09/02 07:50:37;;;;;;;28.30;19.20;;;;;;;21.05;69.47;100204.28;5014753;28;20050;-84
2023/09/02 07:53:03;;;;;;;31.58;20.38;;;;;;;21.08;69.63;100202.16;4997352;28;20492;-84
2023/09/02 07:55:29;;;;;;;30.55;20.42;;;;;;;21.14;69.84;100200.72;5019145;28;20042;-84
2023/09/02 07:57:57;;;;;;;34.17;21.48;;;;;;;21.19;69.46;100203.81;5033905;28;20411;-84
2023/09/02 08:00:24;;;;;;;34.28;21.80;;;;;;;21.25;69.68;100205.06;5033317;28;20061;-84
2023/09/02 08:02:50;;;;;;;32.80;21.30;;;;;;;21.29;69.10;100217.16;5033440;28;20055;-84
2023/09/02 08:05:16;;;;;;;37.05;23.80;;;;;;;21.34;69.23;100219.38;5032340;28;20056;-84
2023/09/02 08:07:44;;;;;;;40.55;25.73;;;;;;;21.38;69.07;100226.13;4995981;28;20054;-84
2023/09/02 08:10:11;;;;;;;39.88;25.55;;;;;;;21.40;68.31;100226.84;4996040;28;20441;-84
2023/09/02 08:12:39;;;;;;;38.97;26.75;;;;;;;21.41;68.63;100225.03;5013996;28;20050;-84
2023/09/02 08:15:06;;;;;;;43.95;28.70;;;;;;;21.43;68.88;100231.91;5013470;28;20042;-85
2023/09/02 08:17:37;;;;;;;38.50;26.70;;;;;;;21.44;68.72;100238.09;5029218;28;20088;-84
2023/09/02 08:20:04;;;;;;;44.10;29.73;;;;;;;21.51;69.08;100238.34;5015139;28;20053;-84
2023/09/02 08:22:30;;;;;;;40.50;27.67;;;;;;;21.56;68.57;100241.44;5032954;28;20057;-84
2023/09/02 08:24:57;;;;;;;42.05;28.85;;;;;;;21.59;68.47;100242.00;5015529;28;20052;-84
2023/09/02 08:27:26;;;;;;;40.53;28.42;;;;;;;21.64;68.18;100246.06;5020402;28;20485;-84
2023/09/02 08:29:53;;;;;;;38.35;26.65;;;;;;;21.69;68.58;100241.97;5013471;28;20062;-84
2023/09/02 08:32:19;;;;;;;38.72;26.30;;;;;;;21.74;68.51;100236.16;5012789;28;20053;-84
2023/09/02 08:34:46;;;;;;;40.10;25.92;;;;;;;21.79;68.43;100246.44;4995481;28;20398;-84
2023/09/02 08:37:12;;;;;;;39.60;27.42;;;;;;;21.84;67.82;100255.75;5003300;28;20518;-84
2023/09/02 08:39:39;;;;;;;34.35;22.90;;;;;;;21.89;68.01;100257.94;5015078;28;20053;-84
2023/09/02 08:42:06;;;;;;;32.15;22.85;;;;;;;21.93;67.75;100258.47;5032474;28;20401;-84
2023/09/02 08:44:35;;;;;;;31.13;22.33;;;;;;;21.93;67.42;100262.03;5032591;28;20053;-84
2023/09/02 08:47:03;;;;;;;33.53;21.63;;;;;;;21.96;67.50;100267.09;5010625;28;20065;-84
2023/09/02 08:49:30;;;;;;;28.60;21.10;;;;;;;21.99;67.32;100274.81;5012191;28;20060;-84
2023/09/02 08:51:57;;;;;;;24.42;18.67;;;;;;;22.02;67.42;100270.16;4994598;28;20076;-84
2023/09/02 08:54:25;;;;;;;25.80;19.23;;;;;;;22.04;67.36;100273.50;5012221;28;20105;-84
2023/09/02 08:56:52;;;;;;;24.60;18.20;;;;;;;22.08;67.92;100277.59;5011981;28;20093;-84
2023/09/02 08:59:19;;;;;;;27.65;20.52;;;;;;;22.15;68.09;100284.03;5013458;28;20054;-84
2023/09/02 09:01:46;;;;;;;27.80;20.75;;;;;;;22.23;68.22;100280.59;5011914;28;20049;-84
2023/09/02 09:04:17;;;;;;;28.23;21.02;;;;;;;22.29;67.99;100276.47;4994578;28;20160;-84
2023/09/02 09:06:44;;;;;;;29.70;22.17;;;;;;;22.38;67.54;100286.28;5012158;28;20152;-84
2023/09/02 09:09:11;;;;;;;32.47;23.00;;;;;;;22.45;67.22;100287.38;4995150;28;20136;-84
2023/09/02 09:11:42;;;;;;;28.02;21.38;;;;;;;22.49;66.33;100294.13;5014092;28;20104;-84
2023/09/02 09:14:22;;;;;;;26.73;20.48;;;;;;;22.52;65.51;100298.34;5031516;28;20514;-84
2023/09/02 09:16:55;;;;;;;22.48;17.58;;;;;;;22.57;66.11;100297.91;5013733;28;20586;-85
2023/09/02 09:19:23;;;;;;;27.02;20.40;;;;;;;22.61;66.08;100296.63;5031768;28;20057;-84
2023/09/02 09:21:49;;;;;;;28.08;20.80;;;;;;;22.63;66.57;100299.97;5029429;28;20530;-84
2023/09/02 09:24:15;;;;;;;25.45;19.63;;;;;;;22.64;66.31;100307.88;5031611;28;20430;-84
2023/09/02 09:26:44;;;;;;;23.75;19.55;;;;;;;22.66;66.30;100299.69;5031216;28;20424;-84
2023/09/02 09:29:18;;;;;;;24.80;19.05;;;;;;;22.67;65.79;100300.50;5030914;28;20053;-84
2023/09/02 09:31:45;;;;;;;23.55;18.05;;;;;;;22.72;66.41;100287.50;5014396;28;20061;-84
2023/09/02 09:34:13;;;;;;;24.25;19.00;;;;;;;22.78;66.85;100293.09;4994366;28;20060;-84
2023/09/02 09:36:39;;;;;;;25.15;17.83;;;;;;;22.86;67.33;100297.66;5011407;28;20068;-84
2023/09/02 09:39:09;;;;;;;24.52;18.75;;;;;;;22.98;66.89;100289.34;4994562;28;20061;-84
2023/09/02 09:41:46;;;;;;;27.50;19.48;;;;;;;23.08;65.42;100289.25;5012565;28;20050;-84
2023/09/02 09:44:17;;;;;;;22.88;18.42;;;;;;;23.22;66.14;100288.72;5011641;28;20072;-84
2023/09/02 09:46:43;;;;;;;27.42;20.48;;;;;;;23.35;66.50;100288.31;5011398;28;20060;-83
2023/09/02 09:49:29;;;;;;;25.95;20.20;;;;;;;23.42;66.07;100283.16;4993779;28;20155;-84
2023/09/02 09:52:01;;;;;;;25.42;20.17;;;;;;;23.58;65.07;100290.44;5030937;28;20068;-84
2023/09/02 09:54:39;;;;;;;23.30;18.95;;;;;;;23.67;64.82;100285.97;5013668;28;20053;-84
2023/09/02 09:57:07;;;;;;;23.95;18.70;;;;;;;23.80;65.22;100290.88;5030888;28;20055;-84
2023/09/02 09:59:35;;;;;;;24.20;20.48;;;;;;;23.88;63.97;100303.53;5008669;28;20415;-84
2023/09/02 10:02:05;;;;;;;22.70;19.33;;;;;;;23.91;63.70;100303.19;5010862;28;20054;-84
2023/09/02 10:04:33;;;;;;;25.17;19.25;;;;;;;23.95;63.37;100308.09;5011977;28;20046;-84
2023/09/02 10:07:01;;;;;;;25.80;19.80;;;;;;;23.95;62.70;100310.78;5011739;28;20136;-84
2023/09/02 10:09:41;;;;;;;24.00;20.15;;;;;;;23.89;62.02;100318.66;4995246;28;20416;-84
2023/09/02 10:12:15;;;;;;;23.90;18.40;;;;;;;23.87;62.21;100317.97;5000153;28;20072;-84
2023/09/02 10:14:45;;;;;;;25.35;19.00;;;;;;;23.84;62.30;100318.31;5031173;28;20416;-84
2023/09/02 10:17:12;;;;;;;21.23;17.25;;;;;;;23.80;62.96;100315.09;5013693;28;20077;-84
2023/09/02 10:19:40;;;;;;;21.08;17.92;;;;;;;23.77;62.87;100318.94;5031006;28;20089;-84
2023/09/02 10:22:07;;;;;;;24.13;19.67;;;;;;;23.78;63.49;100312.56;5000982;28;20510;-83
2023/09/02 10:24:41;;;;;;;26.63;19.80;;;;;;;23.80;63.96;100310.56;5020043;28;20105;-84
2023/09/02 10:27:17;;;;;;;24.75;19.73;;;;;;;23.86;64.89;100324.34;4994143;28;20073;-84
2023/09/02 10:29:50;;;;;;;26.30;20.75;;;;;;;24.01;65.33;100319.22;4999243;28;20045;-84
2023/09/02 10:32:16;;;;;;;25.23;20.33;;;;;;;24.21;65.86;100327.88;5031119;28;20057;-85
2023/09/02 10:35:02;;;;;;;24.33;19.92;;;;;;;24.41;64.99;100324.91;5031399;28;20058;-84
2023/09/02 10:37:41;;;;;;;24.60;20.05;;;;;;;24.64;62.96;100327.81;5031114;28;20063;-84
2023/09/02 10:40:15;;;;;;;23.48;19.40;;;;;;;24.80;62.09;100331.53;5024665;28;20077;-84
2023/09/02 10:42:42;;;;;;;22.55;17.35;;;;;;;24.89;62.28;100338.63;5013646;28;20058;-84
2023/09/02 10:45:09;;;;;;;21.30;17.30;;;;;;;24.95;61.81;100339.81;5015302;28;20136;-84
2023/09/02 10:47:36;;;;;;;23.02;18.05;;;;;;;24.97;61.61;100335.13;4998651;28;20049;-84
2023/09/02 10:50:04;;;;;;;21.90;18.23;;;;;;;24.98;61.43;100332.22;5025596;28;20168;-84
2023/09/02 10:52:30;;;;;;;22.77;17.67;;;;;;;25.00;61.37;100339.31;5019876;28;20053;-84
2023/09/02 10:55:04;;;;;;;21.20;16.70;;;;;;;24.99;61.54;100335.78;5031494;28;20492;-84
2023/09/02 10:57:32;;;;;;;23.40;18.00;;;;;;;25.01;61.17;100338.31;5030154;28;20132;-84
2023/09/02 11:00:17;;;;;;;22.27;16.77;;;;;;;24.98;61.17;100336.78;5021421;28;20058;-84
2023/09/02 11:02:46;;;;;;;23.48;17.15;;;;;;;25.06;61.17;100338.63;5034414;28;20484;-84
2023/09/02 11:05:13;;;;;;;24.40;18.00;;;;;;;25.11;60.85;100333.56;5034381;28;20470;-84
2023/09/02 11:07:41;;;;;;;23.48;17.90;;;;;;;25.14;61.08;100332.38;5016663;28;20046;-84
2023/09/02 11:10:09;;;;;;;19.15;15.98;;;;;;;25.16;60.91;100338.47;5026211;28;20058;-84
2023/09/02 11:13:01;;;;;;;19.77;17.13;;;;;;;25.10;59.90;100345.38;5014563;28;20053;-84
2023/09/02 11:15:28;;;;;;;18.52;15.57;;;;;;;25.15;59.65;100342.19;4996875;28;20049;-84
2023/09/02 11:17:55;;;;;;;18.27;15.10;;;;;;;25.10;59.72;100350.75;5014379;28;20060;-84
2023/09/02 11:20:25;;;;;;;24.60;16.52;;;;;;;25.05;59.82;100345.88;5004053;28;20056;-84
2023/09/02 11:22:56;;;;;;;20.52;16.38;;;;;;;24.99;59.27;100357.31;5016874;28;20057;-84
2023/09/02 11:25:34;;;;;;;19.85;16.92;;;;;;;24.95;59.74;100351.44;5034082;28;20042;-84